Terminal Aerodrome Forecast
Issued by NWS

Home | Current Version | Previous Version | Graphics & Text | Print | Product List | Glossary On
Versions: 1 2 3 4 5 6 7 8 9 10 11 12 13
000
FTUS43 KMPX 131700
TAFAXN
TAF
KAXN 131739Z 1318/1418 19015G24KT P6SM SCT050
     FM140000 21010KT P6SM SCT060
     FM140900 25008KT P6SM FEW060
     FM141500 29010KT P6SM SKC=

USA.gov is the U.S. government's official web portal to all federal, state and local government web resources and services.